Flight Track Log - Related Links

Times and Time Zones

All times are in EDT time to prevent confusion due to time zone crossing. See the CJT574 flight status page for this flight to view local times or setup timezone preferences in your user account.

Time Position Orientation Groundspeed Altitude Reporting Facility
EDT Latitude Longitude Course Direction KTS km/h feet Rate Location/Type
Thu 11:37:18 PM 53.2667 -113.6000 101° East 30 56 2.300  Level Edmonton Center
Thu 11:38:18 PM 53.2333 -113.5333 130° Southeast 150 278 3.800 1.500 Climbing Edmonton Center
Thu 11:39:18 PM 53.2000 -113.4833 138° Southeast 170 315 5.300 1.250 Climbing Edmonton Center
Thu 11:40:18 PM 53.1667 -113.4167 130° Southeast 210 389 6.300 1.050 Climbing Edmonton Center
Thu 11:41:18 PM 53.1167 -113.3167 130° Southeast 270 501 7.400 1.633 Climbing Edmonton Center
Thu 11:43:00 PM 53.1658 -112.3425 101° East  Level FlightAware Approximate
Thu 11:43:18 PM 53.1000 -113.0333 95° East 340 629 11.200  Level Edmonton Center
Thu 11:44:18 PM 53.1167 -112.8667 80° East 380 703 12.800 1.850 Climbing Edmonton Center
Thu 11:45:18 PM 53.1500 -112.7000 71° East 390 723 14.900 1.950 Climbing Edmonton Center
Thu 11:46:18 PM 53.2000 -112.5167 65° Northeast 400 740 16.700 1.750 Climbing Edmonton Center
Thu 11:47:18 PM 53.2500 -112.3500 63° Northeast 420 777 18.400 1.550 Climbing Edmonton Center
Thu 11:48:18 PM 53.2167 -112.1500 105° East 430 797 19.800 1.350 Climbing Edmonton Center
Thu 11:49:18 PM 53.1667 -111.9333 111° Southeast 450 834 21.100 1.400 Climbing Edmonton Center
Thu 11:50:18 PM 53.1333 -111.7333 105° East 470 871 22.600 1.400 Climbing Edmonton Center
Thu 11:51:18 PM 53.1000 -111.5333 105° East 470 871 23.900 1.150 Climbing Edmonton Center
Thu 11:52:18 PM 53.0500 -111.3000 110° East 490 908 24.900 900 Climbing Edmonton Center
Thu 11:53:18 PM 53.0000 -111.0667 110° East 500 925 25.700 850 Climbing Edmonton Center
Thu 11:54:18 PM 52.9667 -110.8333 103° East 520 962 26.600 910 Climbing Edmonton Center
Thu 11:56:16 PM 52.8667 -110.3833 110° East 560 1036 28.400 944 Climbing Winnipeg Center
Thu 11:57:16 PM 52.8333 -110.1500 103° East 560 1036 29.400 1.250 Climbing Winnipeg Center
Thu 11:58:16 PM 52.8000 -109.8833 102° East 560 1036 30.900 1.300 Climbing Winnipeg Center
Thu 11:59:16 PM 52.7500 -109.6500 109° East 560 1036 32.000 950 Climbing Winnipeg Center
Fri 12:00:16 AM 52.7000 -109.4167 109° East 560 1036 32.800 500 Climbing Winnipeg Center
Fri 12:01:16 AM 52.6500 -109.1500 107° East 570 1056 33.000 100 Climbing Winnipeg Center
Fri 12:02:16 AM 52.6167 -108.9167 103° East 570 1056 33.000  Level Winnipeg Center
Fri 12:03:16 AM 52.5500 -108.6500 112° Southeast 570 1056 33.000  Level Winnipeg Center
Fri 12:04:16 AM 52.5000 -108.4167 109° East 570 1056 33.000  Level Winnipeg Center
Fri 12:05:16 AM 52.4667 -108.1833 103° East 570 1056 33.000  Level Winnipeg Center
Fri 12:06:16 AM 52.4167 -107.9167 107° East 570 1056 33.000  Level Winnipeg Center
Fri 12:07:16 AM 52.3500 -107.6833 115° Southeast 580 1073 33.000  Level Winnipeg Center
Fri 12:08:16 AM 52.3167 -107.4167 101° East 580 1073 33.000  Level Winnipeg Center
Fri 12:09:16 AM 52.2500 -107.1833 115° Southeast 580 1073 33.000  Level Winnipeg Center
Fri 12:10:16 AM 52.2000 -106.9333 108° East 580 1073 33.000  Level Winnipeg Center
Fri 12:11:16 AM 52.1333 -106.6667 112° Southeast 590 1093 33.000  Level Winnipeg Center
Fri 12:12:16 AM 52.1000 -106.4167 102° East 590 1093 33.000  Level Winnipeg Center
Fri 12:13:16 AM 52.0500 -106.1500 107° East 580 1073 33.000  Level Winnipeg Center
Fri 12:14:16 AM 52.0000 -105.9333 110° East 580 1073 33.000  Level Winnipeg Center
Fri 12:15:16 AM 51.9500 -105.6667 107° East 580 1073 33.000  Level Winnipeg Center
Fri 12:16:16 AM 51.9000 -105.4167 108° East 580 1073 33.000  Level Winnipeg Center
Fri 12:17:16 AM 51.8500 -105.1833 109° East 580 1073 33.000  Level Winnipeg Center
Fri 12:18:16 AM 51.8000 -104.9333 108° East 580 1073 33.000  Level Winnipeg Center
Fri 12:19:16 AM 51.7500 -104.6833 108° East 570 1056 33.000  Level Winnipeg Center
Fri 12:20:16 AM 51.7000 -104.4500 109° East 580 1073 33.000  Level Winnipeg Center
Fri 12:21:16 AM 51.6333 -104.2000 113° Southeast 580 1073 33.000  Level Winnipeg Center
Fri 12:22:16 AM 51.6000 -103.9500 102° East 580 1073 33.000  Level Winnipeg Center
Fri 12:23:16 AM 51.5333 -103.7000 113° Southeast 580 1073 33.000  Level Winnipeg Center
Fri 12:24:16 AM 51.4667 -103.4667 115° Southeast 580 1073 33.000  Level Winnipeg Center
Fri 12:25:16 AM 51.4167 -103.2167 108° East 570 1056 33.000  Level Winnipeg Center
Fri 12:26:16 AM 51.3667 -102.9667 108° East 570 1056 33.000  Level Winnipeg Center
Fri 12:27:16 AM 51.3167 -102.7500 110° East 570 1056 33.000  Level Winnipeg Center
Fri 12:28:16 AM 51.2500 -102.5000 113° Southeast 570 1056 33.000  Level Winnipeg Center
Fri 12:29:16 AM 51.2167 -102.2667 103° East 570 1056 33.000  Level Winnipeg Center
Fri 12:30:16 AM 51.1667 -102.0167 108° East 570 1056 33.000  Level Winnipeg Center
Fri 12:31:16 AM 51.1000 -101.8000 116° Southeast 570 1056 33.000  Level Winnipeg Center
Fri 12:32:16 AM 51.0500 -101.5500 108° East 570 1056 33.000  Level Winnipeg Center
Fri 12:33:16 AM 51.0000 -101.3000 108° East 570 1056 33.000  Level Winnipeg Center
Fri 12:34:16 AM 50.9500 -101.0500 108° East 570 1056 33.000  Level Winnipeg Center
Fri 12:35:16 AM 50.9000 -100.8167 109° East 570 1056 33.000  Level Winnipeg Center
Fri 12:36:16 AM 50.8500 -100.6000 110° East 570 1056 33.000  Level Winnipeg Center
Fri 12:37:16 AM 50.7833 -100.3500 113° Southeast 560 1036 33.000  Level Winnipeg Center
Fri 12:38:16 AM 50.7333 -100.1333 110° East 560 1036 33.000  Level Winnipeg Center
Fri 12:39:16 AM 50.6833 -99.9000 109° East 560 1036 33.000  Level Winnipeg Center
Fri 12:40:16 AM 50.6333 -99.6833 110° East 550 1019 33.000  Level Winnipeg Center
Fri 12:41:16 AM 50.5833 -99.4500 109° East 550 1019 33.000 -650 Level Winnipeg Center
Fri 12:42:16 AM 50.5333 -99.2000 107° East 550 1019 31.700 -2.300 Descending Winnipeg Center
Fri 12:43:16 AM 50.4667 -98.9833 116° Southeast 540 999 28.400 -2.700 Descending Winnipeg Center
Fri 12:44:16 AM 50.4000 -98.8333 125° Southeast 520 962 26.300 -2.150 Descending Winnipeg Center
Fri 12:45:16 AM 50.3167 -98.6500 125° Southeast 490 908 24.100 -2.200 Descending Winnipeg Center
Fri 12:46:16 AM 50.2500 -98.4500 117° Southeast 460 851 21.900 -2.600 Descending Winnipeg Center
Fri 12:47:16 AM 50.1833 -98.3000 125° Southeast 440 814 18.900 -2.750 Descending Winnipeg Center
Fri 12:48:16 AM 50.1167 -98.1333 122° Southeast 430 797 16.400 -3.150 Descending Winnipeg Center
Fri 12:49:16 AM 50.0667 -97.9833 117° Southeast 420 777 12.600 -2.550 Descending Winnipeg Center
Fri 12:50:16 AM 50.0000 -97.8500 128° Southeast 390 723 11.300 -1.200 Descending Winnipeg Center
Fri 12:51:16 AM 49.9500 -97.7167 120° Southeast 340 629 10.200 -1.500 Descending Winnipeg Center
Fri 12:52:16 AM 49.9000 -97.6167 128° Southeast 330 612 8.300 -1.800 Descending Winnipeg Center
Fri 12:53:16 AM 49.8500 -97.4833 120° Southeast 320 592 6.600 -1.600 Descending Winnipeg Center
Fri 12:54:16 AM 49.7833 -97.4000 141° Southeast 320 592 5.100 -1.300 Descending Winnipeg Center
Fri 12:55:16 AM 49.7167 -97.3333 147° Southeast 280 518 4.000 -850 Descending Winnipeg Center
Fri 12:56:16 AM 49.7500 -97.2833 44° Northeast 190 352 3.400 -700 Descending Winnipeg Center
Fri 12:57:16 AM 49.7833 -97.2500 33° Northeast 160 296 2.600 -800 Descending Winnipeg Center
Fri 12:58:16 AM 49.8333 -97.2500 360° North 140 259 1.800 -700 Descending Winnipeg Center
Fri 12:59:16 AM 49.8667 -97.2333 18° North 130 241 1.200 -500 Descending Winnipeg Center
Fri 01:00:16 AM 49.9000 -97.2333 360° North 90 167 800 -400 Descending Winnipeg Center

Login

Don't have an account? Register now (free) for customized features, flight alerts, and more!